createdAt,value
2023-02-23T00:00:21.203Z,88.63
2023-02-23T00:01:27.629Z,80.15
2023-02-23T00:02:29.798Z,68.07
2023-02-23T00:03:34.625Z,76.55
2023-02-23T00:04:41.539Z,71.25
2023-02-23T00:05:45.476Z,72.97
2023-02-23T00:06:52.422Z,67.38
2023-02-23T00:07:55.071Z,91.00
2023-02-23T00:09:01.741Z,87.57
2023-02-23T00:10:06.169Z,93.25
2023-02-23T00:11:14.302Z,98.97
2023-02-23T00:12:20.853Z,99.90
2023-02-23T00:13:25.462Z,86.70
2023-02-23T00:14:31.999Z,84.10
2023-02-23T00:15:37.166Z,108.28
2023-02-23T00:16:47.073Z,80.53
2023-02-23T00:17:51.945Z,65.65
2023-02-23T00:19:00.561Z,79.03
2023-02-23T00:20:08.132Z,87.05
2023-02-23T00:21:15.392Z,84.07
2023-02-23T00:22:17.622Z,70.45
2023-02-23T00:23:22.946Z,62.90
2023-02-23T00:24:27.138Z,69.05
2023-02-23T00:25:32.824Z,73.60
2023-02-23T00:26:36.475Z,71.18
2023-02-23T00:27:44.506Z,73.43
2023-02-23T00:28:47.775Z,72.45
2023-02-23T00:29:52.561Z,69.82
2023-02-23T00:30:58.433Z,71.32
2023-02-23T00:32:05.639Z,79.03
2023-02-23T00:33:07.799Z,71.20
2023-02-23T00:34:15.614Z,76.55
2023-02-23T00:35:18.880Z,70.68
2023-02-23T00:36:25.738Z,77.97
2023-02-23T00:37:28.381Z,96.05
2023-02-23T00:38:35.146Z,78.50
2023-02-23T00:39:48.317Z,113.50
2023-02-23T00:40:53.695Z,93.63
2023-02-23T00:42:01.554Z,76.05
2023-02-23T00:43:13.192Z,97.65
2023-02-23T00:45:20.735Z,90.75
2023-02-23T00:46:25.233Z,69.93
2023-02-23T00:47:30.418Z,87.57
2023-02-23T00:48:33.166Z,80.07
2023-02-23T00:49:38.537Z,56.22
2023-02-23T00:50:42.109Z,72.03
2023-02-23T00:51:47.138Z,78.13
2023-02-23T00:52:49.290Z,73.47
2023-02-23T00:53:57.304Z,101.30
2023-02-23T00:55:01.127Z,93.72
2023-02-23T00:56:08.972Z,98.10
2023-02-23T00:57:17.035Z,115.38
2023-02-23T00:58:25.757Z,75.57
2023-02-23T00:59:29.873Z,80.88
2023-02-23T01:00:42.320Z,86.40
2023-02-23T01:01:46.568Z,105.45
2023-02-23T01:02:57.346Z,95.07
2023-02-23T01:03:59.572Z,95.75
2023-02-23T01:05:04.253Z,99.32
2023-02-23T01:06:09.780Z,84.45
2023-02-23T01:07:14.699Z,94.50
2023-02-23T01:08:18.042Z,77.10
2023-02-23T01:09:29.622Z,73.43
2023-02-23T01:11:36.203Z,76.18
2023-02-23T01:12:38.347Z,71.45
2023-02-23T01:13:47.551Z,75.50
2023-02-23T01:14:50.835Z,73.40
2023-02-23T01:15:55.838Z,87.97
2023-02-23T01:16:58.164Z,82.85
2023-02-23T01:18:03.050Z,84.65
2023-02-23T01:19:06.447Z,93.50
2023-02-23T01:20:16.083Z,87.47
2023-02-23T01:21:23.958Z,81.35
2023-02-23T01:22:26.583Z,84.15
2023-02-23T01:23:31.494Z,75.03
2023-02-23T01:24:49.186Z,103.20
2023-02-23T01:26:00.090Z,83.45
2023-02-23T01:27:02.420Z,83.40
2023-02-23T01:28:09.172Z,127.88
2023-02-23T01:29:15.412Z,86.25
2023-02-23T01:30:44.510Z,90.43
2023-02-23T01:31:52.537Z,65.88
2023-02-23T01:32:57.353Z,83.57
2023-02-23T01:34:03.585Z,74.93
2023-02-23T01:35:11.058Z,91.93
2023-02-23T01:36:13.973Z,74.88
2023-02-23T01:37:18.912Z,94.78
2023-02-23T01:38:20.997Z,67.85
2023-02-23T01:39:25.970Z,81.05
2023-02-23T01:40:31.469Z,85.65
2023-02-23T01:41:38.213Z,77.45
2023-02-23T01:42:42.216Z,70.30
2023-02-23T01:44:01.002Z,90.93
2023-02-23T01:45:24.638Z,84.78
2023-02-23T01:46:32.376Z,75.68
2023-02-23T01:47:35.362Z,84.72
2023-02-23T01:48:43.551Z,80.03
2023-02-23T01:49:45.913Z,72.90
2023-02-23T01:50:56.097Z,85.07
2023-02-23T01:52:02.824Z,112.03
2023-02-23T01:53:08.773Z,84.85
2023-02-23T01:54:17.574Z,91.28
2023-02-23T01:55:23.817Z,81.40
2023-02-23T01:56:33.051Z,85.88
2023-02-23T01:57:36.476Z,84.60
2023-02-23T01:58:57.090Z,91.03
2023-02-23T01:59:59.362Z,74.63
2023-02-23T02:01:08.694Z,82.40
2023-02-23T02:02:13.530Z,115.32
2023-02-23T02:03:24.099Z,78.65
2023-02-23T02:04:27.354Z,82.95
2023-02-23T02:05:33.453Z,85.97
2023-02-23T02:06:39.549Z,90.53
2023-02-23T02:07:49.332Z,75.38
2023-02-23T02:08:55.312Z,71.20
2023-02-23T02:10:14.235Z,75.10
2023-02-23T02:11:31.093Z,83.28
2023-02-23T02:12:34.089Z,70.68
2023-02-23T02:13:40.937Z,78.70
2023-02-23T02:14:45.852Z,79.95
2023-02-23T02:16:19.653Z,74.93
2023-02-23T02:17:31.589Z,76.93
2023-02-23T02:18:44.417Z,79.55
2023-02-23T02:20:37.406Z,89.25
2023-02-23T02:23:19.923Z,84.50
2023-02-23T02:24:54.317Z,80.90
2023-02-23T02:26:09.990Z,125.45
2023-02-23T02:27:26.949Z,100.97
2023-02-23T02:29:11.950Z,78.68
2023-02-23T02:30:44.023Z,125.95
2023-02-23T02:32:45.459Z,81.95
2023-02-23T02:34:16.102Z,87.13
2023-02-23T02:35:48.458Z,115.32
2023-02-23T02:37:23.178Z,78.85
2023-02-23T02:38:50.722Z,98.90
2023-02-23T02:40:16.573Z,101.50
2023-02-23T02:41:35.488Z,89.90
2023-02-23T02:42:47.119Z,91.43
2023-02-23T02:45:27.396Z,111.25
2023-02-23T02:46:38.069Z,88.53
2023-02-23T02:47:46.455Z,87.10
2023-02-23T02:49:00.759Z,85.30
2023-02-23T02:50:10.383Z,116.50
2023-02-23T02:51:24.112Z,158.00
2023-02-23T02:52:30.766Z,91.45
2023-02-23T02:53:44.640Z,85.32
2023-02-23T02:54:53.469Z,88.03
2023-02-23T02:56:00.924Z,86.28
2023-02-23T02:57:04.652Z,114.25
2023-02-23T02:58:11.540Z,106.05
2023-02-23T02:59:31.809Z,96.57
2023-02-23T03:00:53.751Z,107.28
2023-02-23T03:03:52.316Z,78.00
2023-02-23T03:05:14.901Z,105.10
2023-02-23T03:06:35.367Z,112.57
2023-02-23T03:08:00.753Z,87.18
2023-02-23T03:09:31.370Z,119.88
2023-02-23T03:10:57.205Z,96.18
2023-02-23T03:12:22.996Z,103.78
2023-02-23T03:13:53.936Z,94.72
2023-02-23T03:15:23.955Z,92.95
2023-02-23T03:17:02.784Z,116.63
2023-02-23T03:18:34.089Z,103.10
2023-02-23T03:19:56.541Z,112.40
2023-02-23T03:21:21.146Z,86.95
2023-02-23T03:22:43.656Z,83.57
2023-02-23T03:24:10.872Z,106.88
2023-02-23T03:25:39.717Z,93.80
2023-02-23T03:27:01.907Z,105.35
2023-02-23T03:28:28.117Z,114.93
2023-02-23T03:29:52.309Z,93.03
2023-02-23T03:31:20.441Z,94.47
2023-02-23T03:32:44.832Z,89.53
2023-02-23T03:34:10.260Z,89.90
2023-02-23T03:35:36.463Z,115.15
2023-02-23T03:36:58.880Z,96.45
2023-02-23T03:38:21.080Z,117.32
2023-02-23T03:39:45.888Z,98.75
2023-02-23T03:41:09.216Z,99.82
2023-02-23T03:42:31.553Z,102.28
2023-02-23T03:43:52.633Z,116.68
2023-02-23T03:45:11.404Z,96.18
2023-02-23T03:46:32.440Z,100.18
2023-02-23T03:47:52.618Z,94.87
2023-02-23T03:49:12.596Z,108.40
2023-02-23T03:50:37.427Z,119.03
2023-02-23T03:51:56.777Z,117.15
2023-02-23T03:53:18.822Z,97.90
2023-02-23T03:54:42.746Z,95.05
2023-02-23T03:56:09.150Z,90.30
2023-02-23T03:57:32.404Z,119.05
2023-02-23T03:58:56.259Z,92.70
2023-02-23T04:00:18.613Z,124.28
2023-02-23T04:01:39.724Z,92.97
2023-02-23T04:02:58.332Z,94.68
2023-02-23T04:04:18.651Z,103.40
2023-02-23T04:05:39.234Z,101.30
2023-02-23T04:07:00.931Z,103.63
2023-02-23T04:08:21.553Z,113.10
2023-02-23T04:09:39.029Z,97.32
2023-02-23T04:11:03.792Z,102.20
2023-02-23T04:12:31.895Z,153.02
2023-02-23T04:13:37.743Z,154.13
2023-02-23T04:14:50.139Z,132.27
2023-02-23T04:15:55.414Z,142.13
2023-02-23T04:16:58.355Z,140.15
2023-02-23T04:18:03.870Z,126.82
2023-02-23T04:19:08.403Z,115.97
2023-02-23T04:20:17.510Z,127.38
2023-02-23T04:21:20.241Z,119.40
2023-02-23T04:22:26.641Z,116.15
2023-02-23T04:23:29.817Z,121.35
2023-02-23T04:24:34.681Z,111.60
2023-02-23T04:25:36.916Z,110.28
2023-02-23T04:26:41.724Z,103.55
2023-02-23T04:27:52.726Z,102.32
2023-02-23T04:28:58.842Z,100.75
2023-02-23T04:30:12.428Z,92.95
2023-02-23T04:31:19.176Z,98.90
2023-02-23T04:32:21.781Z,88.38
2023-02-23T04:33:27.659Z,84.10
2023-02-23T04:34:29.945Z,100.55
2023-02-23T04:35:37.585Z,87.30
2023-02-23T04:36:53.008Z,133.75
2023-02-23T04:37:56.532Z,100.25
2023-02-23T04:39:01.456Z,85.20
2023-02-23T04:40:04.121Z,96.47
2023-02-23T04:41:10.882Z,105.35
2023-02-23T04:42:13.246Z,104.15
2023-02-23T04:43:23.001Z,105.50
2023-02-23T04:44:27.350Z,93.88
2023-02-23T04:45:33.640Z,92.57
2023-02-23T04:46:35.993Z,95.40
2023-02-23T04:47:41.226Z,84.65
2023-02-23T04:48:44.785Z,92.93
2023-02-23T04:49:54.545Z,98.70
2023-02-23T04:50:56.839Z,111.32
2023-02-23T04:52:02.052Z,101.15
2023-02-23T04:53:04.569Z,120.10
2023-02-23T04:54:10.461Z,118.10
2023-02-23T04:55:17.958Z,149.20
2023-02-23T04:56:24.419Z,123.10
2023-02-23T04:57:31.587Z,109.63
2023-02-23T04:58:39.262Z,87.10
2023-02-23T04:59:43.172Z,88.10
2023-02-23T05:00:53.515Z,95.10
2023-02-23T05:01:58.154Z,96.47
2023-02-23T05:03:09.191Z,86.00
2023-02-23T05:04:13.416Z,101.57
2023-02-23T05:05:18.531Z,104.63
2023-02-23T05:06:21.247Z,94.63
2023-02-23T05:07:26.077Z,98.70
2023-02-23T05:08:28.428Z,87.20
2023-02-23T05:09:35.524Z,97.53
2023-02-23T05:10:40.077Z,80.30
2023-02-23T05:11:45.401Z,99.00
2023-02-23T05:12:47.771Z,85.43
2023-02-23T05:13:55.177Z,95.00
2023-02-23T05:14:57.935Z,103.82
2023-02-23T05:16:03.188Z,103.97
2023-02-23T05:17:06.662Z,106.53
2023-02-23T05:18:13.147Z,129.85
2023-02-23T05:19:15.387Z,121.63
2023-02-23T05:20:20.262Z,126.90
2023-02-23T05:21:22.390Z,98.18
2023-02-23T05:22:27.314Z,104.43
2023-02-23T05:23:29.641Z,104.55
2023-02-23T05:24:35.941Z,117.40
2023-02-23T05:25:39.016Z,95.38
2023-02-23T05:26:44.100Z,100.05
2023-02-23T05:27:46.288Z,96.47
2023-02-23T05:28:57.159Z,93.90
2023-02-23T05:29:59.822Z,95.03
2023-02-23T05:31:06.515Z,90.45
2023-02-23T05:32:08.989Z,88.80
2023-02-23T05:33:15.445Z,79.35
2023-02-23T05:34:20.039Z,79.00
2023-02-23T05:35:26.952Z,85.18
2023-02-23T05:36:30.839Z,80.38
2023-02-23T05:37:35.785Z,82.03
2023-02-23T05:38:38.626Z,83.00
2023-02-23T05:39:43.604Z,82.97
2023-02-23T05:40:45.886Z,84.80
2023-02-23T05:41:50.922Z,88.95
2023-02-23T05:42:58.558Z,80.88
2023-02-23T05:44:05.962Z,79.82
2023-02-23T05:45:08.878Z,107.50
2023-02-23T05:46:16.153Z,87.93
2023-02-23T05:47:18.489Z,102.05
2023-02-23T05:48:23.733Z,96.68
2023-02-23T05:49:27.116Z,101.00
2023-02-23T05:50:33.450Z,84.22
2023-02-23T05:51:36.003Z,103.50
2023-02-23T05:52:42.329Z,81.05
2023-02-23T05:53:45.065Z,84.82
2023-02-23T05:54:49.976Z,87.82
2023-02-23T05:55:53.460Z,85.40
2023-02-23T05:56:59.781Z,86.28
2023-02-23T05:58:03.171Z,93.82
2023-02-23T05:59:12.226Z,102.25
2023-02-23T06:00:15.111Z,125.22
2023-02-23T06:01:21.131Z,112.93
2023-02-23T06:02:26.193Z,95.32
2023-02-23T06:03:28.313Z,105.30
2023-02-23T06:04:33.129Z,117.32
2023-02-23T06:05:35.276Z,102.07
2023-02-23T06:06:40.164Z,90.25
2023-02-23T06:07:42.451Z,94.72
2023-02-23T06:08:48.130Z,88.07
2023-02-23T06:09:50.420Z,96.75
2023-02-23T06:10:58.149Z,83.18
2023-02-23T06:12:01.239Z,80.00
2023-02-23T06:13:06.085Z,75.97
2023-02-23T06:14:14.340Z,74.70
2023-02-23T06:15:20.340Z,75.88
2023-02-23T06:16:24.843Z,78.85
2023-02-23T06:17:31.051Z,84.78
2023-02-23T06:18:35.282Z,80.47
2023-02-23T06:19:40.157Z,78.38
2023-02-23T06:20:43.699Z,94.53
2023-02-23T06:21:48.598Z,88.90
2023-02-23T06:22:51.016Z,90.18
2023-02-23T06:24:01.057Z,83.03
2023-02-23T06:25:06.261Z,87.35
2023-02-23T06:26:11.602Z,88.05
2023-02-23T06:27:14.372Z,162.55
2023-02-23T06:28:19.446Z,100.07
2023-02-23T06:29:26.593Z,104.78
2023-02-23T06:30:33.818Z,104.55
2023-02-23T06:31:39.020Z,100.00
2023-02-23T06:32:42.531Z,74.50
2023-02-23T06:33:47.729Z,86.18
2023-02-23T06:34:49.974Z,82.22
2023-02-23T06:35:55.912Z,76.25
2023-02-23T06:36:58.374Z,71.18
2023-02-23T06:38:06.430Z,69.80
2023-02-23T06:39:13.729Z,79.03
2023-02-23T06:40:33.639Z,76.97
2023-02-23T06:41:38.747Z,78.40
2023-02-23T06:43:23.147Z,69.55
2023-02-23T06:44:28.264Z,64.60
2023-02-23T06:45:33.052Z,87.57
2023-02-23T06:46:36.320Z,85.43
2023-02-23T06:47:41.306Z,85.55
2023-02-23T06:48:59.824Z,84.15
2023-02-23T06:50:04.145Z,76.45
2023-02-23T06:51:10.050Z,71.18
2023-02-23T06:52:13.783Z,74.90
2023-02-23T06:53:18.579Z,67.00
2023-02-23T06:54:20.790Z,57.67
2023-02-23T06:55:25.744Z,71.50
2023-02-23T06:56:29.297Z,60.88
2023-02-23T06:57:34.315Z,72.88
2023-02-23T06:58:39.221Z,64.72
2023-02-23T06:59:44.354Z,76.10
2023-02-23T07:00:49.299Z,75.82
2023-02-23T07:01:55.495Z,75.57
2023-02-23T07:03:01.491Z,81.22
2023-02-23T07:04:05.447Z,96.90
2023-02-23T07:05:12.554Z,78.90
2023-02-23T07:06:14.983Z,71.60
2023-02-23T07:07:22.398Z,72.68
2023-02-23T07:08:24.663Z,64.15
2023-02-23T07:09:30.705Z,69.43
2023-02-23T07:10:36.661Z,68.93
2023-02-23T07:11:43.390Z,69.20
2023-02-23T07:12:48.336Z,78.60
2023-02-23T07:13:55.819Z,72.43
2023-02-23T07:16:07.486Z,90.20
2023-02-23T07:17:12.727Z,56.95
2023-02-23T07:18:18.122Z,60.33
2023-02-23T07:19:20.435Z,62.10
2023-02-23T07:20:27.342Z,65.20
2023-02-23T07:21:29.509Z,61.33
2023-02-23T07:22:34.579Z,69.82
2023-02-23T07:23:38.017Z,61.28
2023-02-23T07:24:43.058Z,65.38
2023-02-23T07:25:50.105Z,60.97
2023-02-23T07:26:55.064Z,56.53
2023-02-23T07:27:59.301Z,60.58
2023-02-23T07:29:05.332Z,55.63
2023-02-23T07:30:09.479Z,54.33
2023-02-23T07:31:17.286Z,67.68
2023-02-23T07:32:21.751Z,54.50
2023-02-23T07:33:26.871Z,53.88
2023-02-23T07:34:29.424Z,63.78
2023-02-23T07:35:34.387Z,55.83
2023-02-23T07:36:37.487Z,61.50
2023-02-23T07:37:42.345Z,65.43
2023-02-23T07:38:44.465Z,56.60
2023-02-23T07:39:50.948Z,63.05
2023-02-23T07:40:54.740Z,63.75
2023-02-23T07:42:00.708Z,66.15
2023-02-23T07:43:24.003Z,67.03
2023-02-23T07:44:29.062Z,69.80
2023-02-23T07:45:31.537Z,64.97
2023-02-23T07:46:39.168Z,58.97
2023-02-23T07:47:41.602Z,59.78
2023-02-23T07:48:47.842Z,61.65
2023-02-23T07:49:51.229Z,60.22
2023-02-23T07:50:56.758Z,61.53
2023-02-23T07:52:00.235Z,56.53
2023-02-23T07:53:05.320Z,57.65
2023-02-23T07:54:09.459Z,68.88
2023-02-23T07:55:15.417Z,61.42
2023-02-23T07:56:26.393Z,73.93
2023-02-23T07:57:32.929Z,65.40
2023-02-23T07:58:36.761Z,51.65
2023-02-23T07:59:43.695Z,55.90
2023-02-23T08:00:46.105Z,50.97
2023-02-23T08:01:54.035Z,49.88
2023-02-23T08:03:00.333Z,51.65
2023-02-23T08:04:02.844Z,57.70
2023-02-23T08:05:08.728Z,48.80
2023-02-23T08:06:10.763Z,58.88
2023-02-23T08:07:15.686Z,65.43
2023-02-23T08:08:17.892Z,50.35
2023-02-23T08:09:24.545Z,57.97
2023-02-23T08:10:27.062Z,60.25
2023-02-23T08:11:32.110Z,53.10
2023-02-23T08:12:37.680Z,56.58
2023-02-23T08:13:40.250Z,50.35
2023-02-23T08:14:45.214Z,46.45
2023-02-23T08:15:48.753Z,47.78
2023-02-23T08:16:56.964Z,47.15
2023-02-23T08:17:59.300Z,44.90
2023-02-23T08:19:07.417Z,43.92
2023-02-23T08:20:11.241Z,52.05
2023-02-23T08:21:16.119Z,53.85
2023-02-23T08:22:48.743Z,62.60
2023-02-23T08:23:46.340Z,50.17
2023-02-23T08:24:52.301Z,53.08
2023-02-23T08:25:56.163Z,50.30
2023-02-23T08:27:01.372Z,47.42
2023-02-23T08:28:07.081Z,48.28
2023-02-23T08:29:12.530Z,51.83
2023-02-23T08:30:28.326Z,56.83
2023-02-23T08:31:35.375Z,51.65
2023-02-23T08:32:40.847Z,51.53
2023-02-23T08:33:45.879Z,52.42
2023-02-23T08:34:54.426Z,64.18
2023-02-23T08:36:03.392Z,53.25
2023-02-23T08:37:06.979Z,55.30
2023-02-23T08:38:12.142Z,60.15
2023-02-23T08:39:17.075Z,56.17
2023-02-23T08:40:20.925Z,55.50
2023-02-23T08:41:27.743Z,54.33
2023-02-23T08:42:32.604Z,46.88
2023-02-23T08:43:39.419Z,48.78
2023-02-23T08:44:45.251Z,49.55
2023-02-23T08:45:48.621Z,47.65
2023-02-23T08:46:54.054Z,47.03
2023-02-23T08:47:58.806Z,48.75
2023-02-23T08:49:05.937Z,46.58
2023-02-23T08:50:11.097Z,54.33
2023-02-23T08:51:17.386Z,57.28
2023-02-23T08:52:19.692Z,51.00
2023-02-23T08:53:25.852Z,52.45
2023-02-23T08:54:30.974Z,51.28
2023-02-23T08:55:39.747Z,48.45
2023-02-23T08:56:46.637Z,52.63
2023-02-23T08:57:48.805Z,50.55
2023-02-23T08:58:54.598Z,47.22
2023-02-23T08:59:56.676Z,49.47
2023-02-23T09:01:02.162Z,49.47
2023-02-23T09:02:07.468Z,46.30
2023-02-23T09:03:14.925Z,59.47
2023-02-23T09:04:18.432Z,57.53
2023-02-23T09:05:24.859Z,57.17
2023-02-23T09:06:28.455Z,48.47
2023-02-23T09:07:33.340Z,37.50
2023-02-23T09:08:39.104Z,38.60
2023-02-23T09:09:41.323Z,60.65
2023-02-23T09:10:48.183Z,52.50
2023-02-23T09:11:53.426Z,54.35
2023-02-23T09:12:56.046Z,61.50
2023-02-23T09:14:05.306Z,51.65
2023-02-23T09:15:08.996Z,62.58
2023-02-23T09:16:15.174Z,55.58
2023-02-23T09:17:18.121Z,60.65
2023-02-23T09:18:29.882Z,72.72
2023-02-23T09:19:37.146Z,67.72
2023-02-23T09:20:45.337Z,44.03
2023-02-23T09:21:47.846Z,63.13
2023-02-23T09:22:55.535Z,62.80
2023-02-23T09:24:06.491Z,68.55
2023-02-23T09:25:11.354Z,75.95
2023-02-23T09:26:18.340Z,96.57
2023-02-23T09:27:22.732Z,96.63
2023-02-23T09:28:32.161Z,107.22
2023-02-23T09:29:41.774Z,79.28
2023-02-23T09:30:48.731Z,65.20
2023-02-23T09:31:57.777Z,39.70
2023-02-23T09:33:03.269Z,36.53
2023-02-23T09:34:10.958Z,34.85
2023-02-23T09:35:16.632Z,38.67
2023-02-23T09:36:24.197Z,32.13
2023-02-23T09:37:27.666Z,32.22
2023-02-23T09:38:34.302Z,32.08
2023-02-23T09:39:38.926Z,31.40
2023-02-23T09:40:50.553Z,32.20
2023-02-23T09:42:10.750Z,29.40
2023-02-23T09:43:16.612Z,34.05
2023-02-23T09:44:32.779Z,34.60
2023-02-23T09:45:46.717Z,32.10
2023-02-23T09:46:59.726Z,32.17
2023-02-23T09:48:18.355Z,27.50
2023-02-23T09:49:26.475Z,27.08
2023-02-23T09:50:35.089Z,33.22
2023-02-23T09:51:56.764Z,39.55
2023-02-23T09:53:07.581Z,32.55
2023-02-23T09:54:16.286Z,32.40
2023-02-23T09:55:18.826Z,30.92
2023-02-23T09:56:36.877Z,32.60
2023-02-23T09:57:48.085Z,27.75
2023-02-23T09:58:53.507Z,28.98
2023-02-23T09:59:57.289Z,26.60
2023-02-23T10:01:38.703Z,26.77
2023-02-23T10:03:02.648Z,24.83
2023-02-23T10:04:21.814Z,23.73
2023-02-23T10:05:33.265Z,23.50
2023-02-23T10:06:37.808Z,30.05
2023-02-23T10:07:49.243Z,21.15
2023-02-23T10:09:08.858Z,24.95
2023-02-23T10:10:28.245Z,18.67
2023-02-23T10:11:43.592Z,17.52
2023-02-23T10:12:57.389Z,16.60
2023-02-23T10:14:15.954Z,22.33
2023-02-23T10:15:30.843Z,21.63
2023-02-23T10:16:47.982Z,17.42
2023-02-23T10:18:06.425Z,17.60
2023-02-23T10:19:23.211Z,18.35
2023-02-23T10:20:44.468Z,19.05
2023-02-23T10:21:57.404Z,20.67
2023-02-23T10:23:14.513Z,22.73
2023-02-23T10:24:25.575Z,18.30
2023-02-23T10:25:35.862Z,19.77
2023-02-23T10:26:47.529Z,17.02
2023-02-23T10:29:00.438Z,17.25
2023-02-23T10:30:05.588Z,18.35
2023-02-23T10:31:31.398Z,17.85
2023-02-23T10:32:43.542Z,15.52
2023-02-23T10:33:46.607Z,18.20
2023-02-23T10:34:56.761Z,15.82
2023-02-23T10:36:16.892Z,22.25
2023-02-23T10:37:27.495Z,16.27
2023-02-23T10:38:33.439Z,20.43
2023-02-23T10:39:44.350Z,19.55
2023-02-23T10:40:51.561Z,38.13
2023-02-23T10:41:57.361Z,44.53
2023-02-23T10:43:01.970Z,52.28
2023-02-23T10:44:17.204Z,41.90
2023-02-23T10:45:25.881Z,99.95
2023-02-23T10:46:41.645Z,33.65
2023-02-23T10:47:46.846Z,25.73
2023-02-23T10:48:55.874Z,35.58
2023-02-23T10:50:01.049Z,59.95
2023-02-23T10:51:19.909Z,14.35
2023-02-23T10:52:32.702Z,44.55
2023-02-23T10:53:40.401Z,31.92
2023-02-23T10:54:49.823Z,35.30
2023-02-23T10:56:06.036Z,46.63
2023-02-23T10:57:08.929Z,23.42
2023-02-23T10:58:19.872Z,34.88
2023-02-23T10:59:22.453Z,24.23
2023-02-23T11:00:33.349Z,25.92
2023-02-23T11:01:49.150Z,23.30
2023-02-23T11:03:01.987Z,44.20
2023-02-23T11:04:19.240Z,58.17
2023-02-23T11:05:42.055Z,51.30
2023-02-23T11:06:48.924Z,26.02
2023-02-23T11:07:57.057Z,42.28
2023-02-23T11:09:41.347Z,26.63
2023-02-23T11:11:20.869Z,23.73
2023-02-23T11:12:29.862Z,38.80
2023-02-23T11:13:40.347Z,14.40
2023-02-23T11:14:46.745Z,12.35
2023-02-23T11:15:51.070Z,11.13
2023-02-23T11:16:56.381Z,14.15
2023-02-23T11:18:01.885Z,13.68
2023-02-23T11:19:09.561Z,17.13
2023-02-23T11:20:25.171Z,14.60
2023-02-23T11:21:33.769Z,25.77
2023-02-23T11:22:43.587Z,19.58
2023-02-23T11:23:48.670Z,17.55
2023-02-23T11:24:52.430Z,16.25
2023-02-23T11:26:00.246Z,19.80
2023-02-23T11:27:08.782Z,29.70
2023-02-23T11:28:20.995Z,38.88
2023-02-23T11:29:35.386Z,20.45
2023-02-23T11:30:43.219Z,27.48
2023-02-23T11:31:54.302Z,21.40
2023-02-23T11:32:59.099Z,14.25
2023-02-23T11:34:06.011Z,27.73
2023-02-23T11:35:15.526Z,31.08
2023-02-23T11:36:29.288Z,33.28
2023-02-23T11:37:36.636Z,24.38
2023-02-23T11:38:41.896Z,16.98
2023-02-23T11:39:55.186Z,21.85
2023-02-23T11:41:01.939Z,35.53
2023-02-23T11:42:21.331Z,20.27
2023-02-23T11:43:23.525Z,29.05
2023-02-23T11:44:28.497Z,22.23
2023-02-23T11:45:34.630Z,13.93
2023-02-23T11:46:52.705Z,12.68
2023-02-23T11:48:02.431Z,26.25
2023-02-23T11:49:07.869Z,19.60
2023-02-23T11:50:25.769Z,26.00
2023-02-23T11:51:40.391Z,35.05
2023-02-23T11:52:46.946Z,24.00
2023-02-23T11:53:52.589Z,17.98
2023-02-23T11:55:02.887Z,21.63
2023-02-23T11:56:12.791Z,20.90
2023-02-23T11:57:26.015Z,20.98
2023-02-23T11:58:40.135Z,35.60
2023-02-23T11:59:45.810Z,21.98
2023-02-23T12:00:59.560Z,22.23
2023-02-23T12:02:25.183Z,17.35
2023-02-23T12:03:30.764Z,26.58
2023-02-23T12:04:38.220Z,27.00
2023-02-23T12:05:52.089Z,18.08
2023-02-23T12:07:00.562Z,32.83
2023-02-23T12:08:11.179Z,26.90
2023-02-23T12:09:23.549Z,24.52
2023-02-23T12:10:32.712Z,48.00
2023-02-23T12:11:44.113Z,21.13
2023-02-23T12:12:57.693Z,46.17
2023-02-23T12:14:10.757Z,21.70
2023-02-23T12:15:21.926Z,25.90
2023-02-23T12:16:31.503Z,29.30
2023-02-23T12:17:40.363Z,28.85
2023-02-23T12:18:53.686Z,22.88
2023-02-23T12:20:08.728Z,29.15
2023-02-23T12:21:28.022Z,32.00
2023-02-23T12:22:43.592Z,27.88
2023-02-23T12:23:53.023Z,16.60
2023-02-23T12:25:09.736Z,25.00
2023-02-23T12:26:20.828Z,46.75
2023-02-23T12:27:33.289Z,44.60
2023-02-23T12:28:44.663Z,20.95
2023-02-23T12:30:09.112Z,20.05
2023-02-23T12:31:29.245Z,22.70
2023-02-23T12:32:45.124Z,63.70
2023-02-23T12:33:54.938Z,29.17
2023-02-23T12:35:13.680Z,35.30
2023-02-23T12:36:31.578Z,22.55
2023-02-23T12:37:42.440Z,28.58
2023-02-23T12:38:54.835Z,22.58
2023-02-23T12:40:14.115Z,39.15
2023-02-23T12:41:26.403Z,27.35
2023-02-23T12:42:40.741Z,37.25
2023-02-23T12:43:52.252Z,22.77
2023-02-23T12:44:57.680Z,19.10
2023-02-23T12:46:10.616Z,26.23
2023-02-23T12:47:30.469Z,22.98
2023-02-23T12:48:47.118Z,37.25
2023-02-23T12:50:00.582Z,21.55
2023-02-23T12:51:11.195Z,15.15
2023-02-23T12:52:22.610Z,21.73
2023-02-23T12:53:35.088Z,55.15
2023-02-23T12:54:40.719Z,22.08
2023-02-23T12:55:58.839Z,22.00
2023-02-23T12:57:17.077Z,19.38
2023-02-23T12:58:32.469Z,24.10
2023-02-23T13:00:03.784Z,19.65
2023-02-23T13:01:14.848Z,19.65
2023-02-23T13:02:28.542Z,27.85
2023-02-23T13:03:59.104Z,22.73
2023-02-23T13:05:13.639Z,32.90
2023-02-23T13:06:30.585Z,19.25
2023-02-23T13:07:45.047Z,32.00
2023-02-23T13:09:06.176Z,14.88
2023-02-23T13:10:23.213Z,23.77
2023-02-23T13:11:49.328Z,34.58
2023-02-23T13:13:05.295Z,27.13
2023-02-23T13:14:19.457Z,26.88
2023-02-23T13:15:31.953Z,47.53
2023-02-23T13:16:41.712Z,41.80
2023-02-23T13:17:52.551Z,27.83
2023-02-23T13:19:22.440Z,20.38
2023-02-23T13:20:33.866Z,22.60
2023-02-23T13:21:44.970Z,28.67
2023-02-23T13:22:55.530Z,16.65
2023-02-23T13:24:12.124Z,23.65
2023-02-23T13:25:29.025Z,18.13
2023-02-23T13:26:55.808Z,29.52
2023-02-23T13:28:10.014Z,17.38
2023-02-23T13:29:31.239Z,24.30
2023-02-23T13:30:38.170Z,29.60
2023-02-23T13:31:53.911Z,17.60
2023-02-23T13:33:04.270Z,20.13
2023-02-23T13:34:11.924Z,31.48
2023-02-23T13:35:20.633Z,21.58
2023-02-23T13:37:30.905Z,38.55
2023-02-23T13:38:44.484Z,36.67
2023-02-23T13:40:02.519Z,31.90
2023-02-23T13:41:18.041Z,21.38
2023-02-23T13:42:45.132Z,32.63
2023-02-23T13:43:56.102Z,21.02
2023-02-23T13:45:12.677Z,29.20
2023-02-23T13:46:31.723Z,23.90
2023-02-23T13:47:46.284Z,42.35
2023-02-23T13:49:02.136Z,19.92
2023-02-23T13:50:17.576Z,25.73
2023-02-23T13:51:31.350Z,27.40
2023-02-23T13:52:40.045Z,40.97
2023-02-23T13:53:48.061Z,18.60
2023-02-23T13:54:57.190Z,22.33
2023-02-23T13:56:04.319Z,24.63
2023-02-23T13:57:18.390Z,23.25
2023-02-23T13:58:28.122Z,20.45
2023-02-23T13:59:39.895Z,36.70
2023-02-23T14:00:44.564Z,22.48
2023-02-23T14:01:53.438Z,28.02
2023-02-23T14:02:56.521Z,25.08
2023-02-23T14:04:04.838Z,22.05
2023-02-23T14:05:22.416Z,19.98
2023-02-23T14:06:30.778Z,42.28
2023-02-23T14:07:41.956Z,60.35
2023-02-23T14:08:50.462Z,20.98
2023-02-23T14:10:02.227Z,27.10
2023-02-23T14:11:06.354Z,26.95
2023-02-23T14:12:23.253Z,59.53
2023-02-23T14:13:32.466Z,44.78
2023-02-23T14:14:52.817Z,37.38
2023-02-23T14:16:25.102Z,72.03
2023-02-23T14:19:06.273Z,26.10
2023-02-23T14:20:38.551Z,39.47
2023-02-23T14:21:52.982Z,44.78
2023-02-23T14:23:27.447Z,55.13
2023-02-23T14:24:32.844Z,67.85
2023-02-23T14:25:49.015Z,55.65
2023-02-23T14:27:39.767Z,37.95
2023-02-23T14:28:53.823Z,41.65
2023-02-23T14:30:25.628Z,26.00
2023-02-23T14:31:36.486Z,43.63
2023-02-23T14:32:45.663Z,22.40
2023-02-23T14:33:57.076Z,18.45
2023-02-23T14:35:05.994Z,31.00
2023-02-23T14:36:37.008Z,25.95
2023-02-23T14:37:44.068Z,60.83
2023-02-23T14:38:48.417Z,30.15
2023-02-23T14:39:54.976Z,21.92
2023-02-23T14:40:57.685Z,25.02
2023-02-23T14:42:03.358Z,16.15
2023-02-23T14:43:39.301Z,22.10
2023-02-23T14:44:51.668Z,18.08
2023-02-23T14:45:58.325Z,39.67
2023-02-23T14:47:06.111Z,46.63
2023-02-23T14:48:15.952Z,17.42
2023-02-23T14:49:28.313Z,19.35
2023-02-23T14:50:36.451Z,33.72
2023-02-23T14:51:45.170Z,31.05
2023-02-23T14:52:51.751Z,20.85
2023-02-23T14:53:58.556Z,22.02
2023-02-23T14:55:21.110Z,18.38
2023-02-23T14:56:38.719Z,30.42
2023-02-23T14:57:48.242Z,16.92
2023-02-23T14:58:52.092Z,15.50
2023-02-23T15:00:08.036Z,31.27
2023-02-23T15:01:13.005Z,17.77
2023-02-23T15:02:22.316Z,29.75
2023-02-23T15:03:27.475Z,23.55
2023-02-23T15:04:31.654Z,19.63
2023-02-23T15:05:41.397Z,24.63
2023-02-23T15:06:50.899Z,20.95
2023-02-23T15:07:58.603Z,37.60
2023-02-23T15:09:02.837Z,21.45
2023-02-23T15:10:14.051Z,26.35
2023-02-23T15:11:17.868Z,29.90